sensor_id;sensor_type;location;lat;lon;timestamp;pressure;altitude;pressure_sealevel;temperature;humidity
59073;BME280;44859;51.934;15.554;2024-02-26T00:04:20;98662.42;;;1.16;97.62
59073;BME280;44859;51.934;15.554;2024-02-26T00:09:49;98667.29;;;1.15;98.02
59073;BME280;44859;51.934;15.554;2024-02-26T00:14:53;98664.46;;;1.11;98.37
59073;BME280;44859;51.934;15.554;2024-02-26T00:20:00;98664.27;;;1.05;98.61
59073;BME280;44859;51.934;15.554;2024-02-26T00:25:34;98662.51;;;1.06;99.22
59073;BME280;44859;51.934;15.554;2024-02-26T00:30:40;98662.77;;;1.04;99.70
59073;BME280;44859;51.934;15.554;2024-02-26T00:35:44;98664.50;;;1.03;99.94
59073;BME280;44859;51.934;15.554;2024-02-26T00:40:50;98671.68;;;1.06;100.00
59073;BME280;44859;51.934;15.554;2024-02-26T00:45:53;98675.38;;;1.04;100.00
59073;BME280;44859;51.934;15.554;2024-02-26T00:51:18;98678.23;;;0.89;100.00
59073;BME280;44859;51.934;15.554;2024-02-26T00:56:42;98673.84;;;0.78;100.00
59073;BME280;44859;51.934;15.554;2024-02-26T01:02:34;98664.83;;;0.73;100.00
59073;BME280;44859;51.934;15.554;2024-02-26T01:08:44;98661.48;;;0.75;100.00
59073;BME280;44859;51.934;15.554;2024-02-26T01:45:13;98639.73;;;1.23;100.00
59073;BME280;44859;51.934;15.554;2024-02-26T01:50:48;98634.84;;;1.31;100.00
59073;BME280;44859;51.934;15.554;2024-02-26T02:02:01;98630.64;;;1.56;100.00
59073;BME280;44859;51.934;15.554;2024-02-26T02:14:08;98631.51;;;1.67;100.00
59073;BME280;44859;51.934;15.554;2024-02-26T02:19:16;98625.45;;;1.66;100.00
59073;BME280;44859;51.934;15.554;2024-02-26T02:25:08;98619.21;;;1.84;100.00
59073;BME280;44859;51.934;15.554;2024-02-26T02:37:33;98615.31;;;2.18;100.00
59073;BME280;44859;51.934;15.554;2024-02-26T02:48:48;98607.08;;;2.57;100.00
59073;BME280;44859;51.934;15.554;2024-02-26T02:53:52;98608.96;;;2.62;100.00
59073;BME280;44859;51.934;15.554;2024-02-26T02:58:56;98612.68;;;2.65;100.00
59073;BME280;44859;51.934;15.554;2024-02-26T03:04:18;98611.33;;;2.74;100.00
59073;BME280;44859;51.934;15.554;2024-02-26T03:09:56;98606.88;;;2.87;100.00
59073;BME280;44859;51.934;15.554;2024-02-26T03:20:56;98615.80;;;2.94;100.00
59073;BME280;44859;51.934;15.554;2024-02-26T03:26:28;98614.39;;;2.90;100.00
59073;BME280;44859;51.934;15.554;2024-02-26T03:31:55;98612.98;;;2.86;100.00
59073;BME280;44859;51.934;15.554;2024-02-26T03:37:27;98607.41;;;2.77;100.00
59073;BME280;44859;51.934;15.554;2024-02-26T03:42:52;98610.97;;;2.64;100.00
59073;BME280;44859;51.934;15.554;2024-02-26T03:48:38;98611.41;;;2.47;100.00
59073;BME280;44859;51.934;15.554;2024-02-26T03:59:17;98614.46;;;2.33;100.00
59073;BME280;44859;51.934;15.554;2024-02-26T04:04:44;98619.26;;;2.35;100.00
59073;BME280;44859;51.934;15.554;2024-02-26T04:10:26;98628.77;;;2.41;100.00
59073;BME280;44859;51.934;15.554;2024-02-26T04:16:01;98624.10;;;2.51;100.00
59073;BME280;44859;51.934;15.554;2024-02-26T04:21:33;98622.02;;;2.66;100.00
59073;BME280;44859;51.934;15.554;2024-02-26T04:26:46;98617.77;;;2.78;100.00
59073;BME280;44859;51.934;15.554;2024-02-26T04:32:00;98618.00;;;2.85;100.00
59073;BME280;44859;51.934;15.554;2024-02-26T04:38:08;98616.49;;;2.94;100.00
59073;BME280;44859;51.934;15.554;2024-02-26T04:49:20;98615.24;;;3.04;100.00
59073;BME280;44859;51.934;15.554;2024-02-26T05:24:37;98624.21;;;3.70;100.00
59073;BME280;44859;51.934;15.554;2024-02-26T05:36:33;98629.33;;;3.59;100.00
59073;BME280;44859;51.934;15.554;2024-02-26T05:42:14;98633.83;;;3.59;100.00
59073;BME280;44859;51.934;15.554;2024-02-26T05:47:48;98635.32;;;3.61;100.00
59073;BME280;44859;51.934;15.554;2024-02-26T05:53:05;98640.00;;;3.62;100.00
59073;BME280;44859;51.934;15.554;2024-02-26T06:09:38;98645.10;;;2.99;100.00
59073;BME280;44859;51.934;15.554;2024-02-26T06:20:08;98654.08;;;2.76;100.00
59073;BME280;44859;51.934;15.554;2024-02-26T06:25:38;98659.67;;;2.74;100.00
59073;BME280;44859;51.934;15.554;2024-02-26T06:31:03;98661.20;;;2.80;100.00
59073;BME280;44859;51.934;15.554;2024-02-26T06:47:57;98660.23;;;3.03;100.00
59073;BME280;44859;51.934;15.554;2024-02-26T06:53:45;98654.38;;;3.02;100.00
59073;BME280;44859;51.934;15.554;2024-02-26T06:59:15;98656.98;;;2.92;100.00
59073;BME280;44859;51.934;15.554;2024-02-26T07:04:48;98663.55;;;2.82;100.00
59073;BME280;44859;51.934;15.554;2024-02-26T07:10:37;98673.55;;;2.84;100.00
59073;BME280;44859;51.934;15.554;2024-02-26T07:16:01;98673.91;;;2.94;100.00
59073;BME280;44859;51.934;15.554;2024-02-26T07:21:27;98676.35;;;3.18;100.00
59073;BME280;44859;51.934;15.554;2024-02-26T07:27:01;98677.23;;;3.64;100.00
59073;BME280;44859;51.934;15.554;2024-02-26T07:38:26;98681.23;;;4.22;100.00
59073;BME280;44859;51.934;15.554;2024-02-26T07:44:12;98680.59;;;4.46;100.00
59073;BME280;44859;51.934;15.554;2024-02-26T07:49:36;98674.20;;;4.82;100.00
59073;BME280;44859;51.934;15.554;2024-02-26T07:55:00;98675.11;;;5.21;100.00
59073;BME280;44859;51.934;15.554;2024-02-26T08:00:28;98678.70;;;5.50;99.88
59073;BME280;44859;51.934;15.554;2024-02-26T08:05:35;98683.39;;;5.73;98.90
59073;BME280;44859;51.934;15.554;2024-02-26T08:11:03;98687.79;;;5.95;97.60
59073;BME280;44859;51.934;15.554;2024-02-26T08:16:35;98688.83;;;6.28;96.29
59073;BME280;44859;51.934;15.554;2024-02-26T08:21:39;98691.17;;;6.37;95.16
59073;BME280;44859;51.934;15.554;2024-02-26T08:27:23;98687.69;;;6.30;94.41
59073;BME280;44859;51.934;15.554;2024-02-26T08:32:48;98689.20;;;6.20;93.65
59073;BME280;44859;51.934;15.554;2024-02-26T08:37:59;98685.94;;;6.16;93.38
59073;BME280;44859;51.934;15.554;2024-02-26T08:43:26;98693.08;;;6.15;92.58
59073;BME280;44859;51.934;15.554;2024-02-26T08:54:35;98689.52;;;6.06;92.92
59073;BME280;44859;51.934;15.554;2024-02-26T09:00:05;98691.30;;;6.09;92.32
59073;BME280;44859;51.934;15.554;2024-02-26T09:11:15;98687.36;;;6.19;92.44
59073;BME280;44859;51.934;15.554;2024-02-26T09:17:04;98692.81;;;6.25;92.42
59073;BME280;44859;51.934;15.554;2024-02-26T09:22:16;98681.02;;;6.37;92.67
59073;BME280;44859;51.934;15.554;2024-02-26T09:28:20;98682.27;;;6.23;92.28
59073;BME280;44859;51.934;15.554;2024-02-26T09:33:31;98676.09;;;6.25;92.60
59073;BME280;44859;51.934;15.554;2024-02-26T09:38:58;98686.67;;;6.43;92.86
59073;BME280;44859;51.934;15.554;2024-02-26T09:44:44;98687.59;;;6.64;92.70
59073;BME280;44859;51.934;15.554;2024-02-26T09:50:01;98679.41;;;6.80;92.05
59073;BME280;44859;51.934;15.554;2024-02-26T09:55:24;98684.27;;;6.95;91.98
59073;BME280;44859;51.934;15.554;2024-02-26T10:01:30;98686.58;;;7.18;91.22
59073;BME280;44859;51.934;15.554;2024-02-26T10:06:41;98684.34;;;7.34;90.22
59073;BME280;44859;51.934;15.554;2024-02-26T10:12:00;98682.83;;;7.49;89.80
59073;BME280;44859;51.934;15.554;2024-02-26T10:22:40;98699.33;;;7.70;88.76
59073;BME280;44859;51.934;15.554;2024-02-26T10:33:49;98704.04;;;7.97;87.68
59073;BME280;44859;51.934;15.554;2024-02-26T10:38:55;98700.23;;;8.11;86.76
59073;BME280;44859;51.934;15.554;2024-02-26T10:44:18;98698.68;;;8.33;86.16
59073;BME280;44859;51.934;15.554;2024-02-26T10:49:48;98685.56;;;8.51;85.77
59073;BME280;44859;51.934;15.554;2024-02-26T10:55:07;98678.25;;;8.78;85.18
59073;BME280;44859;51.934;15.554;2024-02-26T11:01:08;98682.02;;;8.91;84.75
59073;BME280;44859;51.934;15.554;2024-02-26T11:12:08;98680.88;;;9.36;82.71
59073;BME280;44859;51.934;15.554;2024-02-26T11:17:46;98678.02;;;9.41;82.42
59073;BME280;44859;51.934;15.554;2024-02-26T11:22:52;98676.27;;;9.23;81.71
59073;BME280;44859;51.934;15.554;2024-02-26T11:28:29;98674.70;;;9.28;81.64
59073;BME280;44859;51.934;15.554;2024-02-26T11:33:33;98676.08;;;9.32;81.63
59073;BME280;44859;51.934;15.554;2024-02-26T11:38:52;98680.99;;;9.55;81.64
59073;BME280;44859;51.934;15.554;2024-02-26T11:44:29;98685.16;;;9.66;81.62
59073;BME280;44859;51.934;15.554;2024-02-26T11:55:32;98690.34;;;9.79;79.99
59073;BME280;44859;51.934;15.554;2024-02-26T12:00:58;98682.56;;;9.54;80.66
59073;BME280;44859;51.934;15.554;2024-02-26T12:06:07;98680.46;;;9.60;81.21
59073;BME280;44859;51.934;15.554;2024-02-26T12:11:42;98675.98;;;9.59;81.28
59073;BME280;44859;51.934;15.554;2024-02-26T12:16:58;98678.19;;;9.68;81.08
59073;BME280;44859;51.934;15.554;2024-02-26T12:22:35;98681.20;;;9.79;80.68
59073;BME280;44859;51.934;15.554;2024-02-26T12:27:50;98691.10;;;9.86;80.41
59073;BME280;44859;51.934;15.554;2024-02-26T12:33:47;98685.18;;;9.97;80.58
59073;BME280;44859;51.934;15.554;2024-02-26T12:38:58;98684.20;;;10.12;80.02
59073;BME280;44859;51.934;15.554;2024-02-26T12:44:33;98687.38;;;10.06;80.03
59073;BME280;44859;51.934;15.554;2024-02-26T12:50:21;98686.09;;;10.13;79.23
59073;BME280;44859;51.934;15.554;2024-02-26T12:55:28;98688.77;;;10.37;78.09
59073;BME280;44859;51.934;15.554;2024-02-26T13:00:36;98690.66;;;10.43;76.83
59073;BME280;44859;51.934;15.554;2024-02-26T13:06:01;98698.27;;;10.53;75.92
59073;BME280;44859;51.934;15.554;2024-02-26T13:11:06;98701.27;;;10.71;75.22
59073;BME280;44859;51.934;15.554;2024-02-26T13:16:45;98705.27;;;10.45;73.88
59073;BME280;44859;51.934;15.554;2024-02-26T13:21:56;98703.11;;;10.40;73.40
59073;BME280;44859;51.934;15.554;2024-02-26T13:33:19;98707.05;;;10.33;73.54
59073;BME280;44859;51.934;15.554;2024-02-26T13:39:06;98709.55;;;10.24;73.61
59073;BME280;44859;51.934;15.554;2024-02-26T13:44:19;98720.08;;;10.24;74.36
59073;BME280;44859;51.934;15.554;2024-02-26T13:49:45;98720.97;;;10.21;74.42
59073;BME280;44859;51.934;15.554;2024-02-26T13:54:54;98724.58;;;10.20;74.89
59073;BME280;44859;51.934;15.554;2024-02-26T14:00:29;98723.72;;;10.25;74.98
59073;BME280;44859;51.934;15.554;2024-02-26T14:05:37;98728.17;;;10.27;75.01
59073;BME280;44859;51.934;15.554;2024-02-26T14:10:52;98730.25;;;10.24;75.11
59073;BME280;44859;51.934;15.554;2024-02-26T14:16:18;98730.84;;;10.23;75.36
59073;BME280;44859;51.934;15.554;2024-02-26T14:21:26;98730.16;;;10.18;75.08
59073;BME280;44859;51.934;15.554;2024-02-26T14:26:37;98734.50;;;10.04;75.69
59073;BME280;44859;51.934;15.554;2024-02-26T14:32:26;98729.33;;;10.00;76.33
59073;BME280;44859;51.934;15.554;2024-02-26T14:37:45;98735.05;;;9.93;76.97
59073;BME280;44859;51.934;15.554;2024-02-26T14:43:14;98738.38;;;9.82;76.85
59073;BME280;44859;51.934;15.554;2024-02-26T14:48:21;98735.52;;;9.71;77.32
59073;BME280;44859;51.934;15.554;2024-02-26T14:53:26;98736.73;;;9.66;77.58
59073;BME280;44859;51.934;15.554;2024-02-26T14:58:45;98741.48;;;9.60;78.19
59073;BME280;44859;51.934;15.554;2024-02-26T15:04:05;98743.86;;;9.55;78.74
59073;BME280;44859;51.934;15.554;2024-02-26T15:09:32;98748.63;;;9.49;79.10
59073;BME280;44859;51.934;15.554;2024-02-26T15:14:39;98758.21;;;9.44;79.35
59073;BME280;44859;51.934;15.554;2024-02-26T15:19:48;98763.81;;;9.39;80.32
59073;BME280;44859;51.934;15.554;2024-02-26T15:25:07;98759.41;;;9.30;81.26
59073;BME280;44859;51.934;15.554;2024-02-26T15:30:24;98769.96;;;9.23;81.89
59073;BME280;44859;51.934;15.554;2024-02-26T15:35:30;98780.30;;;9.14;82.75
59073;BME280;44859;51.934;15.554;2024-02-26T15:40:50;98785.98;;;9.07;83.26
59073;BME280;44859;51.934;15.554;2024-02-26T15:45:54;98793.69;;;9.01;83.68
59073;BME280;44859;51.934;15.554;2024-02-26T15:50:58;98798.30;;;8.97;84.06
59073;BME280;44859;51.934;15.554;2024-02-26T15:56:23;98793.80;;;8.87;84.88
59073;BME280;44859;51.934;15.554;2024-02-26T16:01:34;98796.64;;;8.80;84.97
59073;BME280;44859;51.934;15.554;2024-02-26T16:07:00;98795.64;;;8.73;85.24
59073;BME280;44859;51.934;15.554;2024-02-26T16:12:25;98800.52;;;8.64;85.72
59073;BME280;44859;51.934;15.554;2024-02-26T16:17:38;98806.88;;;8.57;85.80
59073;BME280;44859;51.934;15.554;2024-02-26T16:22:59;98815.73;;;8.52;86.43
59073;BME280;44859;51.934;15.554;2024-02-26T16:28:32;98817.59;;;8.47;86.57
59073;BME280;44859;51.934;15.554;2024-02-26T16:34:00;98827.65;;;8.38;87.27
59073;BME280;44859;51.934;15.554;2024-02-26T16:39:07;98832.70;;;8.32;87.35
59073;BME280;44859;51.934;15.554;2024-02-26T16:45:12;98835.60;;;8.27;87.53
59073;BME280;44859;51.934;15.554;2024-02-26T16:50:44;98841.73;;;8.23;88.19
59073;BME280;44859;51.934;15.554;2024-02-26T16:56:20;98846.38;;;8.22;88.53
59073;BME280;44859;51.934;15.554;2024-02-26T17:01:56;98845.59;;;8.20;88.96
59073;BME280;44859;51.934;15.554;2024-02-26T17:07:04;98846.10;;;8.17;89.35
59073;BME280;44859;51.934;15.554;2024-02-26T17:12:42;98847.61;;;8.15;89.60
59073;BME280;44859;51.934;15.554;2024-02-26T17:23:20;98861.72;;;8.06;90.51
59073;BME280;44859;51.934;15.554;2024-02-26T17:28:56;98868.21;;;8.03;91.01
59073;BME280;44859;51.934;15.554;2024-02-26T17:34:25;98874.22;;;8.02;91.24
59073;BME280;44859;51.934;15.554;2024-02-26T17:40:14;98880.54;;;8.01;91.47
59073;BME280;44859;51.934;15.554;2024-02-26T17:45:43;98881.05;;;8.01;91.56
59073;BME280;44859;51.934;15.554;2024-02-26T17:51:09;98886.87;;;8.00;91.74
59073;BME280;44859;51.934;15.554;2024-02-26T17:56:21;98883.40;;;7.97;92.24
59073;BME280;44859;51.934;15.554;2024-02-26T18:02:01;98887.02;;;7.94;92.45
59073;BME280;44859;51.934;15.554;2024-02-26T18:07:31;98893.17;;;7.90;92.09
59073;BME280;44859;51.934;15.554;2024-02-26T18:12:45;98900.75;;;7.89;92.46
59073;BME280;44859;51.934;15.554;2024-02-26T18:18:01;98904.67;;;7.87;92.73
59073;BME280;44859;51.934;15.554;2024-02-26T18:23:05;98907.87;;;7.87;92.90
59073;BME280;44859;51.934;15.554;2024-02-26T18:28:09;98913.23;;;7.87;93.12
59073;BME280;44859;51.934;15.554;2024-02-26T18:33:20;98911.73;;;7.86;93.04
59073;BME280;44859;51.934;15.554;2024-02-26T18:38:29;98910.81;;;7.84;93.46
59073;BME280;44859;51.934;15.554;2024-02-26T18:43:33;98913.19;;;7.82;93.07
59073;BME280;44859;51.934;15.554;2024-02-26T18:48:40;98916.79;;;7.80;93.47
59073;BME280;44859;51.934;15.554;2024-02-26T18:53:46;98916.57;;;7.77;93.67
59073;BME280;44859;51.934;15.554;2024-02-26T18:58:50;98925.38;;;7.76;93.41
59073;BME280;44859;51.934;15.554;2024-02-26T19:04:02;98936.00;;;7.77;93.93
59073;BME280;44859;51.934;15.554;2024-02-26T19:09:06;98933.23;;;7.76;93.73
59073;BME280;44859;51.934;15.554;2024-02-26T19:14:13;98937.04;;;7.73;93.87
59073;BME280;44859;51.934;15.554;2024-02-26T19:19:16;98937.03;;;7.70;93.91
59073;BME280;44859;51.934;15.554;2024-02-26T19:24:20;98937.14;;;7.68;94.29
59073;BME280;44859;51.934;15.554;2024-02-26T19:29:25;98936.63;;;7.64;94.39
59073;BME280;44859;51.934;15.554;2024-02-26T19:34:29;98931.70;;;7.57;94.26
59073;BME280;44859;51.934;15.554;2024-02-26T19:39:33;98933.09;;;7.51;94.53
59073;BME280;44859;51.934;15.554;2024-02-26T19:44:50;98939.95;;;7.43;94.79
59073;BME280;44859;51.934;15.554;2024-02-26T19:50:07;98942.43;;;7.38;95.06
59073;BME280;44859;51.934;15.554;2024-02-26T19:55:13;98943.29;;;7.35;95.20
59073;BME280;44859;51.934;15.554;2024-02-26T20:00:18;98942.70;;;7.36;95.71
59073;BME280;44859;51.934;15.554;2024-02-26T20:05:33;98932.64;;;7.38;95.96
59073;BME280;44859;51.934;15.554;2024-02-26T20:16:15;98931.40;;;7.35;96.08
59073;BME280;44859;51.934;15.554;2024-02-26T20:21:20;98930.17;;;7.28;95.92
59073;BME280;44859;51.934;15.554;2024-02-26T20:26:24;98929.83;;;7.21;96.20
59073;BME280;44859;51.934;15.554;2024-02-26T20:31:28;98931.17;;;7.11;96.42
59073;BME280;44859;51.934;15.554;2024-02-26T20:36:36;98934.46;;;7.01;96.91
59073;BME280;44859;51.934;15.554;2024-02-26T20:41:40;98936.20;;;6.90;97.70
59073;BME280;44859;51.934;15.554;2024-02-26T20:46:43;98932.09;;;6.80;98.08
59073;BME280;44859;51.934;15.554;2024-02-26T20:52:10;98940.21;;;6.71;98.53
59073;BME280;44859;51.934;15.554;2024-02-26T20:57:14;98951.13;;;6.61;99.01
59073;BME280;44859;51.934;15.554;2024-02-26T21:02:18;98950.25;;;6.50;99.15
59073;BME280;44859;51.934;15.554;2024-02-26T21:07:43;98952.49;;;6.35;99.80
59073;BME280;44859;51.934;15.554;2024-02-26T21:12:54;98955.77;;;6.24;100.00
59073;BME280;44859;51.934;15.554;2024-02-26T21:18:30;98960.80;;;6.21;100.00
59073;BME280;44859;51.934;15.554;2024-02-26T21:23:39;98976.07;;;6.19;100.00
59073;BME280;44859;51.934;15.554;2024-02-26T21:28:48;98977.50;;;6.18;100.00
59073;BME280;44859;51.934;15.554;2024-02-26T21:34:01;98979.05;;;6.18;100.00
59073;BME280;44859;51.934;15.554;2024-02-26T21:39:27;98986.15;;;6.15;100.00
59073;BME280;44859;51.934;15.554;2024-02-26T21:44:45;98997.72;;;6.06;100.00
59073;BME280;44859;51.934;15.554;2024-02-26T21:49:57;99003.44;;;5.98;100.00
59073;BME280;44859;51.934;15.554;2024-02-26T21:55:01;99009.27;;;5.87;100.00
59073;BME280;44859;51.934;15.554;2024-02-26T22:00:08;99015.05;;;5.86;100.00
59073;BME280;44859;51.934;15.554;2024-02-26T22:05:11;99021.92;;;5.80;100.00
59073;BME280;44859;51.934;15.554;2024-02-26T22:10:36;99026.30;;;5.71;100.00
59073;BME280;44859;51.934;15.554;2024-02-26T22:15:41;99028.53;;;5.63;100.00
59073;BME280;44859;51.934;15.554;2024-02-26T22:21:05;99029.37;;;5.60;100.00
59073;BME280;44859;51.934;15.554;2024-02-26T22:26:21;99032.69;;;5.55;100.00
59073;BME280;44859;51.934;15.554;2024-02-26T22:31:24;99032.43;;;5.53;100.00
59073;BME280;44859;51.934;15.554;2024-02-26T22:36:31;99039.84;;;5.51;100.00
59073;BME280;44859;51.934;15.554;2024-02-26T22:41:43;99043.36;;;5.50;100.00
59073;BME280;44859;51.934;15.554;2024-02-26T22:46:47;99047.08;;;5.52;100.00
59073;BME280;44859;51.934;15.554;2024-02-26T22:52:02;99046.52;;;5.49;100.00
59073;BME280;44859;51.934;15.554;2024-02-26T22:57:08;99053.24;;;5.47;100.00
59073;BME280;44859;51.934;15.554;2024-02-26T23:02:12;99058.75;;;5.44;100.00
59073;BME280;44859;51.934;15.554;2024-02-26T23:07:24;99066.33;;;5.37;100.00
59073;BME280;44859;51.934;15.554;2024-02-26T23:12:37;99071.57;;;5.32;100.00
59073;BME280;44859;51.934;15.554;2024-02-26T23:17:45;99067.98;;;5.30;100.00
59073;BME280;44859;51.934;15.554;2024-02-26T23:23:09;99073.38;;;5.30;100.00
59073;BME280;44859;51.934;15.554;2024-02-26T23:28:15;99081.16;;;5.31;100.00
59073;BME280;44859;51.934;15.554;2024-02-26T23:33:22;99083.61;;;5.36;100.00
59073;BME280;44859;51.934;15.554;2024-02-26T23:38:26;99083.70;;;5.37;100.00
59073;BME280;44859;51.934;15.554;2024-02-26T23:43:52;99089.29;;;5.37;100.00
59073;BME280;44859;51.934;15.554;2024-02-26T23:49:02;99091.90;;;5.37;100.00
59073;BME280;44859;51.934;15.554;2024-02-26T23:54:12;99092.42;;;5.37;100.00
59073;BME280;44859;51.934;15.554;2024-02-26T23:59:16;99091.73;;;5.37;100.00
